sensor_id;sensor_type;location;lat;lon;timestamp;temperature;humidity
45066;DHT22;30830;53.704;10.004;2023-11-21T00:01:54;7.40;99.90
45066;DHT22;30830;53.704;10.004;2023-11-21T00:04:20;7.40;99.90
45066;DHT22;30830;53.704;10.004;2023-11-21T00:06:45;7.40;99.90
45066;DHT22;30830;53.704;10.004;2023-11-21T00:09:12;7.30;99.90
45066;DHT22;30830;53.704;10.004;2023-11-21T00:11:38;7.40;99.90
45066;DHT22;30830;53.704;10.004;2023-11-21T00:14:04;7.40;99.90
45066;DHT22;30830;53.704;10.004;2023-11-21T00:16:30;7.40;99.90
45066;DHT22;30830;53.704;10.004;2023-11-21T00:18:55;7.40;99.90
45066;DHT22;30830;53.704;10.004;2023-11-21T00:21:21;7.20;99.90
45066;DHT22;30830;53.704;10.004;2023-11-21T00:23:46;7.30;99.90
45066;DHT22;30830;53.704;10.004;2023-11-21T00:26:12;7.20;99.90
45066;DHT22;30830;53.704;10.004;2023-11-21T00:28:37;7.20;99.90
45066;DHT22;30830;53.704;10.004;2023-11-21T00:31:03;7.10;99.90
45066;DHT22;30830;53.704;10.004;2023-11-21T00:33:29;7.10;99.90
45066;DHT22;30830;53.704;10.004;2023-11-21T00:35:55;7.10;99.90
45066;DHT22;30830;53.704;10.004;2023-11-21T00:38:20;7.10;99.90
45066;DHT22;30830;53.704;10.004;2023-11-21T00:40:46;6.90;99.90
45066;DHT22;30830;53.704;10.004;2023-11-21T00:43:12;6.90;99.90
45066;DHT22;30830;53.704;10.004;2023-11-21T00:45:37;6.90;99.90
45066;DHT22;30830;53.704;10.004;2023-11-21T00:48:03;6.80;99.90
45066;DHT22;30830;53.704;10.004;2023-11-21T00:50:30;6.80;99.90
45066;DHT22;30830;53.704;10.004;2023-11-21T00:52:55;6.90;99.90
45066;DHT22;30830;53.704;10.004;2023-11-21T00:55:21;6.90;99.90
45066;DHT22;30830;53.704;10.004;2023-11-21T00:57:47;6.90;99.90
45066;DHT22;30830;53.704;10.004;2023-11-21T01:00:13;7.00;99.90
45066;DHT22;30830;53.704;10.004;2023-11-21T01:02:45;7.00;99.90
45066;DHT22;30830;53.704;10.004;2023-11-21T01:05:11;6.90;99.90
45066;DHT22;30830;53.704;10.004;2023-11-21T01:07:36;6.90;99.90
45066;DHT22;30830;53.704;10.004;2023-11-21T01:10:03;6.90;99.90
45066;DHT22;30830;53.704;10.004;2023-11-21T01:12:34;6.80;99.90
45066;DHT22;30830;53.704;10.004;2023-11-21T01:14:59;6.80;99.90
45066;DHT22;30830;53.704;10.004;2023-11-21T01:17:26;6.80;99.90
45066;DHT22;30830;53.704;10.004;2023-11-21T01:19:52;6.80;99.90
45066;DHT22;30830;53.704;10.004;2023-11-21T01:22:18;6.80;99.90
45066;DHT22;30830;53.704;10.004;2023-11-21T01:24:47;6.80;99.90
45066;DHT22;30830;53.704;10.004;2023-11-21T01:27:13;6.90;99.90
45066;DHT22;30830;53.704;10.004;2023-11-21T01:29:38;6.80;99.90
45066;DHT22;30830;53.704;10.004;2023-11-21T01:32:04;6.80;99.90
45066;DHT22;30830;53.704;10.004;2023-11-21T01:34:30;6.80;99.90
45066;DHT22;30830;53.704;10.004;2023-11-21T01:36:56;6.80;99.90
45066;DHT22;30830;53.704;10.004;2023-11-21T01:39:21;6.70;99.90
45066;DHT22;30830;53.704;10.004;2023-11-21T01:41:50;6.70;99.90
45066;DHT22;30830;53.704;10.004;2023-11-21T01:44:16;6.60;99.90
45066;DHT22;30830;53.704;10.004;2023-11-21T01:46:42;6.60;99.90
45066;DHT22;30830;53.704;10.004;2023-11-21T01:49:09;6.60;99.90
45066;DHT22;30830;53.704;10.004;2023-11-21T01:51:38;6.60;99.90
45066;DHT22;30830;53.704;10.004;2023-11-21T01:54:04;6.60;99.90
45066;DHT22;30830;53.704;10.004;2023-11-21T01:56:30;6.60;99.90
45066;DHT22;30830;53.704;10.004;2023-11-21T01:58:57;6.50;99.90
45066;DHT22;30830;53.704;10.004;2023-11-21T02:01:22;6.50;99.90
45066;DHT22;30830;53.704;10.004;2023-11-21T02:03:48;6.50;99.90
45066;DHT22;30830;53.704;10.004;2023-11-21T02:06:14;6.50;99.90
45066;DHT22;30830;53.704;10.004;2023-11-21T02:08:40;6.50;99.90
45066;DHT22;30830;53.704;10.004;2023-11-21T02:11:08;6.40;99.90
45066;DHT22;30830;53.704;10.004;2023-11-21T02:13:34;6.40;99.90
45066;DHT22;30830;53.704;10.004;2023-11-21T02:16:02;6.40;99.90
45066;DHT22;30830;53.704;10.004;2023-11-21T02:18:27;6.40;99.90
45066;DHT22;30830;53.704;10.004;2023-11-21T02:20:55;6.40;99.90
45066;DHT22;30830;53.704;10.004;2023-11-21T02:23:20;6.30;99.90
45066;DHT22;30830;53.704;10.004;2023-11-21T02:25:48;6.30;99.90
45066;DHT22;30830;53.704;10.004;2023-11-21T02:28:14;6.30;99.90
45066;DHT22;30830;53.704;10.004;2023-11-21T02:30:41;6.20;99.90
45066;DHT22;30830;53.704;10.004;2023-11-21T02:33:08;6.20;99.90
45066;DHT22;30830;53.704;10.004;2023-11-21T02:35:33;6.30;99.90
45066;DHT22;30830;53.704;10.004;2023-11-21T02:38:00;6.30;99.90
45066;DHT22;30830;53.704;10.004;2023-11-21T02:40:26;6.30;99.90
45066;DHT22;30830;53.704;10.004;2023-11-21T02:42:52;6.20;99.90
45066;DHT22;30830;53.704;10.004;2023-11-21T02:45:18;6.30;99.90
45066;DHT22;30830;53.704;10.004;2023-11-21T02:47:46;6.20;99.90
45066;DHT22;30830;53.704;10.004;2023-11-21T02:50:12;6.20;99.90
45066;DHT22;30830;53.704;10.004;2023-11-21T02:52:38;6.20;99.90
45066;DHT22;30830;53.704;10.004;2023-11-21T02:55:06;6.20;99.90
45066;DHT22;30830;53.704;10.004;2023-11-21T02:57:33;6.20;99.90
45066;DHT22;30830;53.704;10.004;2023-11-21T02:59:59;6.20;99.90
45066;DHT22;30830;53.704;10.004;2023-11-21T03:02:25;6.20;99.90
45066;DHT22;30830;53.704;10.004;2023-11-21T03:04:51;6.20;99.90
45066;DHT22;30830;53.704;10.004;2023-11-21T03:07:17;6.20;99.90
45066;DHT22;30830;53.704;10.004;2023-11-21T03:09:44;6.20;99.90
45066;DHT22;30830;53.704;10.004;2023-11-21T03:12:10;6.10;99.90
45066;DHT22;30830;53.704;10.004;2023-11-21T03:14:37;6.10;99.90
45066;DHT22;30830;53.704;10.004;2023-11-21T03:17:03;6.10;99.90
45066;DHT22;30830;53.704;10.004;2023-11-21T03:19:30;6.10;99.90
45066;DHT22;30830;53.704;10.004;2023-11-21T03:21:55;6.10;99.90
45066;DHT22;30830;53.704;10.004;2023-11-21T03:24:21;6.10;99.90
45066;DHT22;30830;53.704;10.004;2023-11-21T03:26:48;6.10;99.90
45066;DHT22;30830;53.704;10.004;2023-11-21T03:29:13;6.10;99.90
45066;DHT22;30830;53.704;10.004;2023-11-21T03:31:40;6.00;99.90
45066;DHT22;30830;53.704;10.004;2023-11-21T03:34:06;6.10;99.90
45066;DHT22;30830;53.704;10.004;2023-11-21T03:36:31;6.00;99.90
45066;DHT22;30830;53.704;10.004;2023-11-21T03:38:57;6.10;99.90
45066;DHT22;30830;53.704;10.004;2023-11-21T03:41:22;6.10;99.90
45066;DHT22;30830;53.704;10.004;2023-11-21T03:43:48;6.00;99.90
45066;DHT22;30830;53.704;10.004;2023-11-21T03:46:13;6.00;99.90
45066;DHT22;30830;53.704;10.004;2023-11-21T03:48:39;6.10;99.90
45066;DHT22;30830;53.704;10.004;2023-11-21T03:51:05;6.00;99.90
45066;DHT22;30830;53.704;10.004;2023-11-21T03:53:31;6.00;99.90
45066;DHT22;30830;53.704;10.004;2023-11-21T03:55:57;6.00;99.90
45066;DHT22;30830;53.704;10.004;2023-11-21T03:58:23;6.00;99.90
45066;DHT22;30830;53.704;10.004;2023-11-21T04:00:48;6.00;99.90
45066;DHT22;30830;53.704;10.004;2023-11-21T04:03:17;6.00;99.90
45066;DHT22;30830;53.704;10.004;2023-11-21T04:05:42;6.00;99.90
45066;DHT22;30830;53.704;10.004;2023-11-21T04:08:08;6.00;99.90
45066;DHT22;30830;53.704;10.004;2023-11-21T04:10:33;6.00;99.90
45066;DHT22;30830;53.704;10.004;2023-11-21T04:13:00;5.90;99.90
45066;DHT22;30830;53.704;10.004;2023-11-21T04:15:25;6.00;99.90
45066;DHT22;30830;53.704;10.004;2023-11-21T04:17:51;6.00;99.90
45066;DHT22;30830;53.704;10.004;2023-11-21T04:20:17;6.00;99.90
45066;DHT22;30830;53.704;10.004;2023-11-21T04:22:43;5.90;99.90
45066;DHT22;30830;53.704;10.004;2023-11-21T04:25:10;5.90;99.90
45066;DHT22;30830;53.704;10.004;2023-11-21T04:27:37;5.90;99.90
45066;DHT22;30830;53.704;10.004;2023-11-21T04:30:03;5.90;99.90
45066;DHT22;30830;53.704;10.004;2023-11-21T04:32:30;6.00;99.90
45066;DHT22;30830;53.704;10.004;2023-11-21T04:34:56;6.00;99.90
45066;DHT22;30830;53.704;10.004;2023-11-21T04:37:21;6.00;99.90
45066;DHT22;30830;53.704;10.004;2023-11-21T04:39:48;6.00;99.90
45066;DHT22;30830;53.704;10.004;2023-11-21T04:42:13;6.00;99.90
45066;DHT22;30830;53.704;10.004;2023-11-21T04:44:39;6.00;99.90
45066;DHT22;30830;53.704;10.004;2023-11-21T04:47:06;6.00;99.90
45066;DHT22;30830;53.704;10.004;2023-11-21T04:49:33;6.00;99.90
45066;DHT22;30830;53.704;10.004;2023-11-21T04:51:58;6.00;99.90
45066;DHT22;30830;53.704;10.004;2023-11-21T04:54:24;6.00;99.90
45066;DHT22;30830;53.704;10.004;2023-11-21T04:56:50;5.90;99.90
45066;DHT22;30830;53.704;10.004;2023-11-21T04:59:15;5.90;99.90
45066;DHT22;30830;53.704;10.004;2023-11-21T05:01:41;5.90;99.90
45066;DHT22;30830;53.704;10.004;2023-11-21T05:04:06;5.90;99.90
45066;DHT22;30830;53.704;10.004;2023-11-21T05:06:34;6.00;99.90
45066;DHT22;30830;53.704;10.004;2023-11-21T05:08:59;5.90;99.90
45066;DHT22;30830;53.704;10.004;2023-11-21T05:11:28;5.90;99.90
45066;DHT22;30830;53.704;10.004;2023-11-21T05:13:57;5.90;99.90
45066;DHT22;30830;53.704;10.004;2023-11-21T05:16:25;5.90;99.90
45066;DHT22;30830;53.704;10.004;2023-11-21T05:18:52;5.90;99.90
45066;DHT22;30830;53.704;10.004;2023-11-21T05:21:18;5.90;99.90
45066;DHT22;30830;53.704;10.004;2023-11-21T05:23:46;5.90;99.90
45066;DHT22;30830;53.704;10.004;2023-11-21T05:26:11;5.90;99.90
45066;DHT22;30830;53.704;10.004;2023-11-21T05:28:37;5.90;99.90
45066;DHT22;30830;53.704;10.004;2023-11-21T05:31:02;5.90;99.90
45066;DHT22;30830;53.704;10.004;2023-11-21T05:33:28;5.90;99.90
45066;DHT22;30830;53.704;10.004;2023-11-21T05:35:53;5.90;99.90
45066;DHT22;30830;53.704;10.004;2023-11-21T05:38:19;5.90;99.90
45066;DHT22;30830;53.704;10.004;2023-11-21T05:40:47;5.90;99.90
45066;DHT22;30830;53.704;10.004;2023-11-21T05:43:13;5.90;99.90
45066;DHT22;30830;53.704;10.004;2023-11-21T05:45:38;5.90;99.90
45066;DHT22;30830;53.704;10.004;2023-11-21T05:48:04;5.90;99.90
45066;DHT22;30830;53.704;10.004;2023-11-21T05:50:30;5.80;99.90
45066;DHT22;30830;53.704;10.004;2023-11-21T05:52:56;5.80;99.90
45066;DHT22;30830;53.704;10.004;2023-11-21T05:55:23;5.90;99.90
45066;DHT22;30830;53.704;10.004;2023-11-21T05:57:51;5.80;99.90
45066;DHT22;30830;53.704;10.004;2023-11-21T06:00:16;5.90;99.90
45066;DHT22;30830;53.704;10.004;2023-11-21T06:02:49;5.90;99.90
45066;DHT22;30830;53.704;10.004;2023-11-21T06:05:25;5.80;99.90
45066;DHT22;30830;53.704;10.004;2023-11-21T06:07:51;5.90;99.90
45066;DHT22;30830;53.704;10.004;2023-11-21T06:10:23;5.90;99.90
45066;DHT22;30830;53.704;10.004;2023-11-21T06:12:49;5.90;99.90
45066;DHT22;30830;53.704;10.004;2023-11-21T06:15:15;5.90;99.90
45066;DHT22;30830;53.704;10.004;2023-11-21T06:17:41;5.90;99.90
45066;DHT22;30830;53.704;10.004;2023-11-21T06:20:08;5.90;99.90
45066;DHT22;30830;53.704;10.004;2023-11-21T06:22:38;5.90;99.90
45066;DHT22;30830;53.704;10.004;2023-11-21T06:25:04;5.90;99.90
45066;DHT22;30830;53.704;10.004;2023-11-21T06:27:32;5.90;99.90
45066;DHT22;30830;53.704;10.004;2023-11-21T06:29:58;5.90;99.90
45066;DHT22;30830;53.704;10.004;2023-11-21T06:32:23;5.90;99.90
45066;DHT22;30830;53.704;10.004;2023-11-21T06:34:49;5.90;99.90
45066;DHT22;30830;53.704;10.004;2023-11-21T06:37:15;5.90;99.90
45066;DHT22;30830;53.704;10.004;2023-11-21T06:39:42;5.90;99.90
45066;DHT22;30830;53.704;10.004;2023-11-21T06:42:07;5.80;99.90
45066;DHT22;30830;53.704;10.004;2023-11-21T06:44:33;5.90;99.90
45066;DHT22;30830;53.704;10.004;2023-11-21T06:46:59;5.90;99.90
45066;DHT22;30830;53.704;10.004;2023-11-21T06:49:24;5.90;99.90
45066;DHT22;30830;53.704;10.004;2023-11-21T06:51:51;5.90;99.90
45066;DHT22;30830;53.704;10.004;2023-11-21T06:54:16;5.90;99.90
45066;DHT22;30830;53.704;10.004;2023-11-21T06:56:42;5.90;99.90
45066;DHT22;30830;53.704;10.004;2023-11-21T06:59:07;5.90;99.90
45066;DHT22;30830;53.704;10.004;2023-11-21T07:01:34;5.90;99.90
45066;DHT22;30830;53.704;10.004;2023-11-21T07:04:05;5.90;99.90
45066;DHT22;30830;53.704;10.004;2023-11-21T07:06:31;5.90;99.90
45066;DHT22;30830;53.704;10.004;2023-11-21T07:08:56;5.90;99.90
45066;DHT22;30830;53.704;10.004;2023-11-21T07:11:22;5.90;99.90
45066;DHT22;30830;53.704;10.004;2023-11-21T07:13:48;5.90;99.90
45066;DHT22;30830;53.704;10.004;2023-11-21T07:16:13;6.00;99.90
45066;DHT22;30830;53.704;10.004;2023-11-21T07:18:40;6.00;99.90
45066;DHT22;30830;53.704;10.004;2023-11-21T07:21:06;5.90;99.90
45066;DHT22;30830;53.704;10.004;2023-11-21T07:23:32;6.00;99.90
45066;DHT22;30830;53.704;10.004;2023-11-21T07:25:57;6.00;99.90
45066;DHT22;30830;53.704;10.004;2023-11-21T07:28:24;6.00;99.90
45066;DHT22;30830;53.704;10.004;2023-11-21T07:30:51;6.00;99.90
45066;DHT22;30830;53.704;10.004;2023-11-21T07:33:16;6.00;99.90
45066;DHT22;30830;53.704;10.004;2023-11-21T07:35:43;6.00;99.90
45066;DHT22;30830;53.704;10.004;2023-11-21T07:38:08;6.00;99.90
45066;DHT22;30830;53.704;10.004;2023-11-21T07:40:34;6.00;99.90
45066;DHT22;30830;53.704;10.004;2023-11-21T07:42:59;6.00;99.90
45066;DHT22;30830;53.704;10.004;2023-11-21T07:45:25;6.00;99.90
45066;DHT22;30830;53.704;10.004;2023-11-21T07:47:53;6.00;99.90
45066;DHT22;30830;53.704;10.004;2023-11-21T07:50:19;6.10;99.90
45066;DHT22;30830;53.704;10.004;2023-11-21T07:52:46;6.00;99.90
45066;DHT22;30830;53.704;10.004;2023-11-21T07:55:11;6.10;99.90
45066;DHT22;30830;53.704;10.004;2023-11-21T07:57:37;6.10;99.90
45066;DHT22;30830;53.704;10.004;2023-11-21T08:00:04;6.10;99.90
45066;DHT22;30830;53.704;10.004;2023-11-21T08:02:34;6.10;99.90
45066;DHT22;30830;53.704;10.004;2023-11-21T08:04:59;6.10;99.90
45066;DHT22;30830;53.704;10.004;2023-11-21T08:07:25;6.10;99.90
45066;DHT22;30830;53.704;10.004;2023-11-21T08:09:51;6.10;99.90
45066;DHT22;30830;53.704;10.004;2023-11-21T08:12:18;6.10;99.90
45066;DHT22;30830;53.704;10.004;2023-11-21T08:14:45;6.10;99.90
45066;DHT22;30830;53.704;10.004;2023-11-21T08:17:11;6.10;99.90
45066;DHT22;30830;53.704;10.004;2023-11-21T08:19:36;6.10;99.90
45066;DHT22;30830;53.704;10.004;2023-11-21T08:22:03;6.10;99.90
45066;DHT22;30830;53.704;10.004;2023-11-21T08:24:28;6.10;99.90
45066;DHT22;30830;53.704;10.004;2023-11-21T08:26:54;6.10;99.90
45066;DHT22;30830;53.704;10.004;2023-11-21T08:29:20;6.10;99.90
45066;DHT22;30830;53.704;10.004;2023-11-21T08:31:45;6.10;99.90
45066;DHT22;30830;53.704;10.004;2023-11-21T08:34:12;6.10;99.90
45066;DHT22;30830;53.704;10.004;2023-11-21T08:36:44;6.10;99.90
45066;DHT22;30830;53.704;10.004;2023-11-21T08:39:10;6.00;99.90
45066;DHT22;30830;53.704;10.004;2023-11-21T08:41:36;6.10;99.90
45066;DHT22;30830;53.704;10.004;2023-11-21T08:44:02;6.00;99.90
45066;DHT22;30830;53.704;10.004;2023-11-21T08:46:31;6.00;99.90
45066;DHT22;30830;53.704;10.004;2023-11-21T08:48:57;6.00;99.90
45066;DHT22;30830;53.704;10.004;2023-11-21T08:51:22;6.00;99.90
45066;DHT22;30830;53.704;10.004;2023-11-21T08:53:48;6.00;99.90
45066;DHT22;30830;53.704;10.004;2023-11-21T08:56:13;6.00;99.90
45066;DHT22;30830;53.704;10.004;2023-11-21T08:58:39;6.00;99.90
45066;DHT22;30830;53.704;10.004;2023-11-21T09:01:05;6.00;99.90
45066;DHT22;30830;53.704;10.004;2023-11-21T09:03:32;6.00;99.90
45066;DHT22;30830;53.704;10.004;2023-11-21T09:06:00;6.10;99.90
45066;DHT22;30830;53.704;10.004;2023-11-21T09:08:25;6.00;99.90
45066;DHT22;30830;53.704;10.004;2023-11-21T09:10:53;6.00;99.90
45066;DHT22;30830;53.704;10.004;2023-11-21T09:13:19;6.00;99.90
45066;DHT22;30830;53.704;10.004;2023-11-21T09:15:44;6.00;99.90
45066;DHT22;30830;53.704;10.004;2023-11-21T09:18:13;6.00;99.90
45066;DHT22;30830;53.704;10.004;2023-11-21T09:20:38;6.00;99.90
45066;DHT22;30830;53.704;10.004;2023-11-21T09:23:04;6.00;99.90
45066;DHT22;30830;53.704;10.004;2023-11-21T09:25:29;6.10;99.90
45066;DHT22;30830;53.704;10.004;2023-11-21T09:27:55;6.10;99.90
45066;DHT22;30830;53.704;10.004;2023-11-21T09:30:22;6.00;99.90
45066;DHT22;30830;53.704;10.004;2023-11-21T09:32:50;6.00;99.90
45066;DHT22;30830;53.704;10.004;2023-11-21T09:35:16;6.10;99.90
45066;DHT22;30830;53.704;10.004;2023-11-21T09:37:43;6.10;99.90
45066;DHT22;30830;53.704;10.004;2023-11-21T09:40:11;6.00;99.90
45066;DHT22;30830;53.704;10.004;2023-11-21T09:42:40;6.00;99.90
45066;DHT22;30830;53.704;10.004;2023-11-21T09:45:27;5.90;99.90
45066;DHT22;30830;53.704;10.004;2023-11-21T09:47:57;5.90;99.90
45066;DHT22;30830;53.704;10.004;2023-11-21T09:50:24;5.90;99.90
45066;DHT22;30830;53.704;10.004;2023-11-21T09:55:34;5.90;99.90
45066;DHT22;30830;53.704;10.004;2023-11-21T09:58:04;5.90;99.90
45066;DHT22;30830;53.704;10.004;2023-11-21T10:00:33;5.90;99.90
45066;DHT22;30830;53.704;10.004;2023-11-21T10:02:59;6.00;99.90
45066;DHT22;30830;53.704;10.004;2023-11-21T10:05:25;6.00;99.90
45066;DHT22;30830;53.704;10.004;2023-11-21T10:07:51;6.00;99.90
45066;DHT22;30830;53.704;10.004;2023-11-21T10:10:19;6.00;99.90
45066;DHT22;30830;53.704;10.004;2023-11-21T10:12:49;6.00;99.90
45066;DHT22;30830;53.704;10.004;2023-11-21T10:15:21;6.00;99.90
45066;DHT22;30830;53.704;10.004;2023-11-21T10:17:49;6.00;99.90
45066;DHT22;30830;53.704;10.004;2023-11-21T10:20:16;6.00;99.90
45066;DHT22;30830;53.704;10.004;2023-11-21T10:22:42;6.00;99.90
45066;DHT22;30830;53.704;10.004;2023-11-21T10:25:09;6.00;99.90
45066;DHT22;30830;53.704;10.004;2023-11-21T10:27:38;6.00;99.90
45066;DHT22;30830;53.704;10.004;2023-11-21T10:30:05;5.90;99.90
45066;DHT22;30830;53.704;10.004;2023-11-21T10:32:31;6.00;99.90
45066;DHT22;30830;53.704;10.004;2023-11-21T10:34:58;6.00;99.90
45066;DHT22;30830;53.704;10.004;2023-11-21T10:37:32;6.00;99.90
45066;DHT22;30830;53.704;10.004;2023-11-21T10:39:58;6.00;99.90
45066;DHT22;30830;53.704;10.004;2023-11-21T10:42:24;6.00;99.90
45066;DHT22;30830;53.704;10.004;2023-11-21T10:44:50;5.90;99.90
45066;DHT22;30830;53.704;10.004;2023-11-21T10:47:16;5.90;99.90
45066;DHT22;30830;53.704;10.004;2023-11-21T10:49:44;5.90;99.90
45066;DHT22;30830;53.704;10.004;2023-11-21T10:52:13;5.80;99.90
45066;DHT22;30830;53.704;10.004;2023-11-21T10:54:43;5.90;99.90
45066;DHT22;30830;53.704;10.004;2023-11-21T10:57:10;5.90;99.90
45066;DHT22;30830;53.704;10.004;2023-11-21T10:59:36;5.90;99.90
45066;DHT22;30830;53.704;10.004;2023-11-21T11:02:26;5.90;99.90
45066;DHT22;30830;53.704;10.004;2023-11-21T11:04:54;5.90;99.90
45066;DHT22;30830;53.704;10.004;2023-11-21T11:07:27;5.80;99.90
45066;DHT22;30830;53.704;10.004;2023-11-21T11:09:55;5.80;99.90
45066;DHT22;30830;53.704;10.004;2023-11-21T11:12:21;5.80;99.90
45066;DHT22;30830;53.704;10.004;2023-11-21T11:14:48;5.80;99.90
45066;DHT22;30830;53.704;10.004;2023-11-21T11:17:14;5.80;99.90
45066;DHT22;30830;53.704;10.004;2023-11-21T11:19:40;5.70;99.90
45066;DHT22;30830;53.704;10.004;2023-11-21T11:22:14;5.70;99.90
45066;DHT22;30830;53.704;10.004;2023-11-21T11:25:16;5.70;99.90
45066;DHT22;30830;53.704;10.004;2023-11-21T11:28:01;5.70;99.90
45066;DHT22;30830;53.704;10.004;2023-11-21T11:30:40;5.70;99.90
45066;DHT22;30830;53.704;10.004;2023-11-21T11:33:21;5.70;99.90
45066;DHT22;30830;53.704;10.004;2023-11-21T11:36:06;5.70;99.90
45066;DHT22;30830;53.704;10.004;2023-11-21T11:38:33;5.70;99.90
45066;DHT22;30830;53.704;10.004;2023-11-21T11:41:07;5.80;99.90
45066;DHT22;30830;53.704;10.004;2023-11-21T11:43:34;5.80;99.90
45066;DHT22;30830;53.704;10.004;2023-11-21T11:46:09;5.70;99.90
45066;DHT22;30830;53.704;10.004;2023-11-21T11:48:39;5.70;99.90
45066;DHT22;30830;53.704;10.004;2023-11-21T11:51:15;5.70;99.90
45066;DHT22;30830;53.704;10.004;2023-11-21T11:53:43;5.70;99.90
45066;DHT22;30830;53.704;10.004;2023-11-21T11:56:29;5.80;99.90
45066;DHT22;30830;53.704;10.004;2023-11-21T11:59:02;5.80;99.90
45066;DHT22;30830;53.704;10.004;2023-11-21T12:01:28;5.80;99.90
45066;DHT22;30830;53.704;10.004;2023-11-21T12:06:51;5.80;99.90
45066;DHT22;30830;53.704;10.004;2023-11-21T12:09:24;5.80;99.90
45066;DHT22;30830;53.704;10.004;2023-11-21T12:11:52;5.80;99.90
45066;DHT22;30830;53.704;10.004;2023-11-21T12:14:18;5.80;99.90
45066;DHT22;30830;53.704;10.004;2023-11-21T12:16:44;5.70;99.90
45066;DHT22;30830;53.704;10.004;2023-11-21T12:19:13;5.70;99.90
45066;DHT22;30830;53.704;10.004;2023-11-21T12:21:39;5.60;99.90
45066;DHT22;30830;53.704;10.004;2023-11-21T12:24:09;5.60;99.90
45066;DHT22;30830;53.704;10.004;2023-11-21T12:26:35;5.60;99.90
45066;DHT22;30830;53.704;10.004;2023-11-21T12:29:04;5.60;99.90
45066;DHT22;30830;53.704;10.004;2023-11-21T12:31:30;5.60;99.90
45066;DHT22;30830;53.704;10.004;2023-11-21T12:33:56;5.50;99.90
45066;DHT22;30830;53.704;10.004;2023-11-21T12:36:23;5.50;99.90
45066;DHT22;30830;53.704;10.004;2023-11-21T12:38:48;5.50;99.90
45066;DHT22;30830;53.704;10.004;2023-11-21T12:41:16;5.40;99.90
45066;DHT22;30830;53.704;10.004;2023-11-21T12:43:42;5.40;99.90
45066;DHT22;30830;53.704;10.004;2023-11-21T12:46:10;5.40;99.90
45066;DHT22;30830;53.704;10.004;2023-11-21T12:48:39;5.40;99.90
45066;DHT22;30830;53.704;10.004;2023-11-21T12:51:06;5.40;99.90
45066;DHT22;30830;53.704;10.004;2023-11-21T12:53:32;5.40;99.90
45066;DHT22;30830;53.704;10.004;2023-11-21T12:56:05;5.40;99.90
45066;DHT22;30830;53.704;10.004;2023-11-21T12:58:31;5.50;99.90
45066;DHT22;30830;53.704;10.004;2023-11-21T13:00:59;5.40;99.90
45066;DHT22;30830;53.704;10.004;2023-11-21T13:03:25;5.40;99.90
45066;DHT22;30830;53.704;10.004;2023-11-21T13:05:51;5.50;99.90
45066;DHT22;30830;53.704;10.004;2023-11-21T13:08:20;5.40;99.90
45066;DHT22;30830;53.704;10.004;2023-11-21T13:10:50;5.40;99.90
45066;DHT22;30830;53.704;10.004;2023-11-21T13:13:16;5.50;99.90
45066;DHT22;30830;53.704;10.004;2023-11-21T13:15:48;5.50;99.90
45066;DHT22;30830;53.704;10.004;2023-11-21T13:18:15;5.40;99.90
45066;DHT22;30830;53.704;10.004;2023-11-21T13:20:41;5.40;99.90
45066;DHT22;30830;53.704;10.004;2023-11-21T13:23:09;5.40;99.90
45066;DHT22;30830;53.704;10.004;2023-11-21T13:25:37;5.40;99.90
45066;DHT22;30830;53.704;10.004;2023-11-21T13:28:04;5.40;99.90
45066;DHT22;30830;53.704;10.004;2023-11-21T13:30:31;5.40;99.90
45066;DHT22;30830;53.704;10.004;2023-11-21T13:33:00;5.40;99.90
45066;DHT22;30830;53.704;10.004;2023-11-21T13:35:32;5.40;99.90
45066;DHT22;30830;53.704;10.004;2023-11-21T13:38:06;5.50;99.90
45066;DHT22;30830;53.704;10.004;2023-11-21T13:40:35;5.50;99.90
45066;DHT22;30830;53.704;10.004;2023-11-21T13:43:08;5.50;99.90
45066;DHT22;30830;53.704;10.004;2023-11-21T13:45:36;5.50;99.90
45066;DHT22;30830;53.704;10.004;2023-11-21T13:48:02;5.50;99.90
45066;DHT22;30830;53.704;10.004;2023-11-21T13:50:28;5.40;99.90
45066;DHT22;30830;53.704;10.004;2023-11-21T13:53:01;5.50;99.90
45066;DHT22;30830;53.704;10.004;2023-11-21T13:55:44;5.40;99.90
45066;DHT22;30830;53.704;10.004;2023-11-21T13:58:11;5.40;99.90
45066;DHT22;30830;53.704;10.004;2023-11-21T14:00:42;5.40;99.90
45066;DHT22;30830;53.704;10.004;2023-11-21T14:03:14;5.30;99.90
45066;DHT22;30830;53.704;10.004;2023-11-21T14:05:46;5.30;99.90
45066;DHT22;30830;53.704;10.004;2023-11-21T14:08:19;5.30;99.90
45066;DHT22;30830;53.704;10.004;2023-11-21T14:10:47;5.30;99.90
45066;DHT22;30830;53.704;10.004;2023-11-21T14:13:19;5.30;99.90
45066;DHT22;30830;53.704;10.004;2023-11-21T14:15:49;5.30;99.90
45066;DHT22;30830;53.704;10.004;2023-11-21T14:18:16;5.20;99.90
45066;DHT22;30830;53.704;10.004;2023-11-21T14:20:43;5.20;99.90
45066;DHT22;30830;53.704;10.004;2023-11-21T14:23:09;5.10;99.90
45066;DHT22;30830;53.704;10.004;2023-11-21T14:25:36;5.10;99.90
45066;DHT22;30830;53.704;10.004;2023-11-21T14:28:05;5.10;99.90
45066;DHT22;30830;53.704;10.004;2023-11-21T14:30:32;5.00;99.90
45066;DHT22;30830;53.704;10.004;2023-11-21T14:33:00;5.00;99.90
45066;DHT22;30830;53.704;10.004;2023-11-21T14:35:26;5.00;99.90
45066;DHT22;30830;53.704;10.004;2023-11-21T14:37:52;5.00;99.90
45066;DHT22;30830;53.704;10.004;2023-11-21T14:40:18;5.00;99.90
45066;DHT22;30830;53.704;10.004;2023-11-21T14:42:50;5.00;99.90
45066;DHT22;30830;53.704;10.004;2023-11-21T14:45:18;5.00;99.90
45066;DHT22;30830;53.704;10.004;2023-11-21T14:47:48;5.00;99.90
45066;DHT22;30830;53.704;10.004;2023-11-21T14:50:30;4.90;99.90
45066;DHT22;30830;53.704;10.004;2023-11-21T14:53:09;4.90;99.90
45066;DHT22;30830;53.704;10.004;2023-11-21T14:55:37;4.90;99.90
45066;DHT22;30830;53.704;10.004;2023-11-21T14:58:16;4.90;99.90
45066;DHT22;30830;53.704;10.004;2023-11-21T15:00:51;4.80;99.90
45066;DHT22;30830;53.704;10.004;2023-11-21T15:03:22;4.90;99.90
45066;DHT22;30830;53.704;10.004;2023-11-21T15:06:00;4.90;99.90
45066;DHT22;30830;53.704;10.004;2023-11-21T15:08:44;4.90;99.90
45066;DHT22;30830;53.704;10.004;2023-11-21T15:11:09;4.90;99.90
45066;DHT22;30830;53.704;10.004;2023-11-21T15:13:40;4.90;99.90
45066;DHT22;30830;53.704;10.004;2023-11-21T15:16:07;4.80;99.90
45066;DHT22;30830;53.704;10.004;2023-11-21T15:18:33;4.80;99.90
45066;DHT22;30830;53.704;10.004;2023-11-21T15:21:01;4.80;99.90
45066;DHT22;30830;53.704;10.004;2023-11-21T15:23:28;4.80;99.90
45066;DHT22;30830;53.704;10.004;2023-11-21T15:25:56;4.80;99.90
45066;DHT22;30830;53.704;10.004;2023-11-21T15:28:21;4.80;99.90
45066;DHT22;30830;53.704;10.004;2023-11-21T15:30:47;4.80;99.90
45066;DHT22;30830;53.704;10.004;2023-11-21T15:33:16;4.80;99.90
45066;DHT22;30830;53.704;10.004;2023-11-21T15:35:42;4.80;99.90
45066;DHT22;30830;53.704;10.004;2023-11-21T15:38:07;4.80;99.90